Time;durP1;ratioP1;P1;durP2;ratioP2;P2;SDS_P1;SDS_P2;PMS_P1;PMS_P2;Temp;Humidity;BMP_temperature;BMP_pressure;BME280_temperature;BME280_humidity;BME280_pressure;Samples;Min_cycle;Max_cycle;Signal;HPM_P1;HPM_P2
2023/05/02 00:00:53;;;;;;;6.60;3.23;;;;;;;8.75;100.00;101405.50;6016891;23;20306;-73
2023/05/02 00:03:19;;;;;;;5.60;2.53;;;;;;;8.66;100.00;101401.22;6087346;23;20166;-73
2023/05/02 00:05:44;;;;;;;5.57;2.93;;;;;;;9.39;100.00;101527.69;6090599;23;20158;-73
2023/05/02 00:08:10;;;;;;;5.60;2.60;;;;;;;10.53;100.00;101720.09;6090512;23;20154;-72
2023/05/02 00:10:36;;;;;;;5.80;2.80;;;;;;;10.56;100.00;101705.50;6089366;23;20166;-71
2023/05/02 00:13:01;;;;;;;8.97;3.10;;;;;;;10.34;100.00;101688.38;6092524;23;20383;-72
2023/05/02 00:15:27;;;;;;;4.47;3.07;;;;;;;10.37;100.00;101714.81;6090023;23;20158;-72
2023/05/02 00:17:52;;;;;;;5.33;2.83;;;;;;;10.62;100.00;101694.91;6092164;23;20233;-73
2023/05/02 00:20:17;;;;;;;5.27;3.20;;;;;;;10.23;100.00;101643.16;6091608;23;20260;-72
2023/05/02 00:22:43;;;;;;;4.90;2.50;;;;;;;10.08;100.00;101649.25;6091568;23;20174;-73
2023/05/02 00:25:09;;;;;;;6.60;2.33;;;;;;;10.42;100.00;101707.09;6091812;23;20597;-72
2023/05/02 00:27:34;;;;;;;5.77;2.93;;;;;;;9.86;100.00;101625.91;6089913;23;20173;-72
2023/05/02 00:30:00;;;;;;;7.20;2.83;;;;;;;10.45;100.00;101727.38;6089465;23;20165;-72
2023/05/02 00:32:26;;;;;;;3.73;2.40;;;;;;;10.01;100.00;101667.06;6090456;23;20182;-72
2023/05/02 00:34:52;;;;;;;6.53;2.60;;;;;;;9.87;100.00;101630.28;6092365;23;20221;-72
2023/05/02 00:37:17;;;;;;;4.47;2.40;;;;;;;9.67;100.00;101638.72;6092093;23;20422;-73
2023/05/02 00:39:43;;;;;;;5.90;2.53;;;;;;;9.69;100.00;101635.84;6092526;23;20446;-72
2023/05/02 00:42:09;;;;;;;4.30;2.47;;;;;;;9.83;100.00;101688.72;6090003;23;20261;-72
2023/05/02 00:44:35;;;;;;;2.70;2.00;;;;;;;10.18;100.00;101770.53;6091598;23;20739;-72
2023/05/02 00:47:00;;;;;;;3.63;1.70;;;;;;;9.58;100.00;101682.63;6092020;23;20155;-72
2023/05/02 00:49:26;;;;;;;2.87;1.80;;;;;;;9.86;100.00;101733.09;6089507;23;20576;-73
2023/05/02 00:51:54;;;;;;;5.07;2.30;;;;;;;10.04;100.00;101779.28;6091554;23;20402;-73
2023/05/02 00:54:20;;;;;;;5.33;2.37;;;;;;;10.04;100.00;101803.41;6090152;23;20154;-73
2023/05/02 00:56:46;;;;;;;5.07;2.00;;;;;;;10.12;100.00;101787.28;6090178;23;20437;-73
2023/05/02 00:59:12;;;;;;;6.73;2.90;;;;;;;9.93;100.00;101787.69;6088314;23;20297;-72
2023/05/02 01:02:09;;;;;;;8.80;3.13;;;;;;;10.00;100.00;101780.63;6090161;23;20194;-73
2023/05/02 01:04:59;;;;;;;9.40;3.40;;;;;;;10.05;100.00;101772.91;6090768;23;20359;-73
2023/05/02 01:07:37;;;;;;;10.00;3.53;;;;;;;10.10;100.00;101775.91;6089731;23;20379;-73
2023/05/02 01:10:20;;;;;;;9.47;3.10;;;;;;;10.27;100.00;101765.13;6092006;23;20363;-73
2023/05/02 01:13:02;;;;;;;10.50;2.87;;;;;;;9.48;100.00;101692.69;6091738;23;20770;-73
2023/05/02 01:15:29;;;;;;;8.47;3.03;;;;;;;9.67;100.00;101688.78;6090464;23;20786;-73
2023/05/02 01:17:55;;;;;;;9.80;2.80;;;;;;;9.57;100.00;101688.97;6091614;23;20418;-73
2023/05/02 01:20:24;;;;;;;10.10;3.00;;;;;;;9.25;100.00;101676.47;6092622;23;20429;-73
2023/05/02 01:22:51;;;;;;;9.50;3.00;;;;;;;8.94;100.00;101682.53;6091736;23;20422;-74
2023/05/02 01:25:30;;;;;;;12.40;3.00;;;;;;;9.72;100.00;101788.25;6091458;23;20401;-73
2023/05/02 01:28:07;;;;;;;15.07;3.93;;;;;;;9.13;100.00;101662.63;6089794;23;20478;-73
2023/05/02 01:30:35;;;;;;;8.30;2.57;;;;;;;9.65;100.00;101784.56;6091555;23;20371;-73
2023/05/02 01:33:03;;;;;;;13.73;2.43;;;;;;;9.02;100.00;101687.88;6090602;23;20394;-73
2023/05/02 01:35:31;;;;;;;12.67;3.50;;;;;;;9.31;100.00;101681.16;6089428;23;20865;-73
2023/05/02 01:38:00;;;;;;;8.90;2.63;;;;;;;9.45;100.00;101757.28;6092010;23;20414;-73
2023/05/02 01:40:26;;;;;;;9.70;2.97;;;;;;;9.12;100.00;101676.19;6090303;23;20390;-73
2023/05/02 01:42:53;;;;;;;20.07;3.30;;;;;;;8.95;100.00;101702.09;6092642;23;20837;-73
2023/05/02 01:45:21;;;;;;;9.60;2.53;;;;;;;8.68;100.00;101688.06;6091212;23;20387;-73
2023/05/02 01:47:47;;;;;;;12.60;3.17;;;;;;;8.40;100.00;101657.25;6090290;23;20440;-74
2023/05/02 01:50:16;;;;;;;10.43;2.63;;;;;;;9.01;100.00;101720.16;6088576;23;20391;-74
2023/05/02 01:52:46;;;;;;;10.00;3.00;;;;;;;8.73;100.00;101698.22;6091751;23;20409;-74
2023/05/02 01:55:14;;;;;;;15.20;2.70;;;;;;;9.50;100.00;101795.13;6090560;23;20390;-73
2023/05/02 01:57:42;;;;;;;9.00;2.20;;;;;;;8.71;100.00;101703.75;6091539;23;20420;-73
2023/05/02 02:00:09;;;;;;;15.03;3.60;;;;;;;9.45;100.00;101803.66;6090058;23;20445;-73
2023/05/02 02:02:36;;;;;;;11.90;3.40;;;;;;;9.07;100.00;101742.75;6091003;23;20437;-73
2023/05/02 02:05:05;;;;;;;10.73;3.10;;;;;;;8.82;100.00;101748.06;6089698;23;20482;-73
2023/05/02 02:07:31;;;;;;;15.13;3.33;;;;;;;8.71;100.00;101743.88;6091564;23;20382;-74
2023/05/02 02:09:56;;;;;;;14.03;3.20;;;;;;;8.37;100.00;101739.41;6091688;23;20524;-74
2023/05/02 02:12:26;;;;;;;11.33;3.60;;;;;;;8.39;100.00;101685.84;6092097;23;20398;-73
2023/05/02 02:15:27;;;;;;;13.00;3.17;;;;;;;9.17;100.00;101813.88;6090719;23;20154;-73
2023/05/02 02:18:10;;;;;;;12.93;3.13;;;;;;;8.76;100.00;101728.16;5951905;24;21441;-73
2023/05/02 02:20:37;;;;;;;11.07;3.40;;;;;;;8.79;100.00;101783.16;6079887;23;20390;-74
2023/05/02 02:23:07;;;;;;;10.30;3.03;;;;;;;8.92;100.00;101829.03;6090838;23;20717;-73
2023/05/02 02:25:33;;;;;;;13.20;3.33;;;;;;;8.70;100.00;101768.09;6087978;23;20398;-74
2023/05/02 02:28:00;;;;;;;18.30;4.80;;;;;;;8.90;100.00;101774.00;6089541;23;20395;-73
2023/05/02 02:30:25;;;;;;;15.57;3.50;;;;;;;8.29;100.00;101733.19;6090919;23;20401;-73
2023/05/02 02:32:51;;;;;;;12.70;3.50;;;;;;;8.94;100.00;101786.91;6090905;23;20842;-73
2023/05/02 02:35:17;;;;;;;12.53;3.50;;;;;;;8.13;100.00;101744.69;6093247;23;20158;-73
2023/05/02 02:37:51;;;;;;;10.00;3.70;;;;;;;8.69;100.00;101847.53;6093749;23;20755;-73
2023/05/02 02:40:48;;;;;;;12.90;3.63;;;;;;;8.82;100.00;101858.63;6092431;23;20173;-73
2023/05/02 02:43:31;;;;;;;10.47;3.80;;;;;;;8.27;100.00;101792.16;6091637;23;20370;-74
2023/05/02 02:46:08;;;;;;;10.93;3.03;;;;;;;8.42;100.00;101775.53;6090060;23;20876;-74
2023/05/02 02:48:42;;;;;;;11.23;3.47;;;;;;;8.39;100.00;101800.78;6088960;23;20777;-74
2023/05/02 02:51:13;;;;;;;12.70;3.60;;;;;;;8.97;100.00;101888.25;6091660;23;20409;-73
2023/05/02 02:53:52;;;;;;;10.67;3.10;;;;;;;8.85;100.00;101886.84;6089404;23;20377;-74
2023/05/02 02:56:33;;;;;;;15.10;3.67;;;;;;;8.94;100.00;101893.06;6090181;23;20410;-74
2023/05/02 02:59:05;;;;;;;13.40;3.70;;;;;;;8.80;100.00;101900.72;6090124;23;20378;-74
2023/05/02 03:01:32;;;;;;;9.27;3.00;;;;;;;8.88;100.00;101897.25;6089985;23;21180;-73
2023/05/02 03:03:57;;;;;;;14.40;3.50;;;;;;;8.23;100.00;101857.63;6089750;23;20386;-74
2023/05/02 03:06:24;;;;;;;10.03;2.80;;;;;;;8.59;100.00;101838.78;6089915;23;20386;-74
2023/05/02 03:08:49;;;;;;;10.00;3.40;;;;;;;8.47;100.00;101848.09;6087800;23;20648;-74
2023/05/02 03:11:15;;;;;;;7.97;2.87;;;;;;;8.49;100.00;101864.81;6088975;23;20490;-73
2023/05/02 03:13:41;;;;;;;10.90;3.10;;;;;;;8.94;100.00;101952.81;6089341;23;20151;-74
2023/05/02 03:16:18;;;;;;;13.00;3.73;;;;;;;8.59;100.00;101956.44;6088331;23;20155;-73
2023/05/02 03:18:43;;;;;;;11.10;2.97;;;;;;;8.93;100.00;101969.84;6085435;23;20178;-73
2023/05/02 03:21:09;;;;;;;11.93;3.20;;;;;;;8.12;100.00;101858.72;6090984;23;20873;-74
2023/05/02 03:23:35;;;;;;;13.10;2.83;;;;;;;7.80;100.00;101871.88;6090851;23;20163;-72
2023/05/02 03:26:01;;;;;;;11.17;2.87;;;;;;;8.61;100.00;101970.50;6088972;23;20162;-72
2023/05/02 03:28:27;;;;;;;10.43;3.03;;;;;;;8.92;100.00;101986.91;6092277;23;20154;-72
2023/05/02 03:30:52;;;;;;;6.93;2.40;;;;;;;8.69;100.00;101999.97;6090747;23;20402;-73
2023/05/02 03:33:17;;;;;;;12.97;3.23;;;;;;;8.01;100.00;101885.69;6089474;23;20613;-72
2023/05/02 03:35:43;;;;;;;13.03;2.80;;;;;;;8.40;100.00;101937.97;6089760;23;20158;-73
2023/05/02 03:38:09;;;;;;;5.97;2.13;;;;;;;8.04;100.00;101904.13;6090483;23;20197;-75
2023/05/02 03:40:34;;;;;;;15.90;3.20;;;;;;;8.15;100.00;101957.28;6092669;23;20548;-72
2023/05/02 03:42:59;;;;;;;5.17;2.00;;;;;;;8.43;100.00;102023.22;6092008;23;20158;-74
2023/05/02 03:45:25;;;;;;;6.40;2.23;;;;;;;8.09;100.00;101963.25;6093549;23;20154;-73
2023/05/02 03:47:50;;;;;;;11.03;2.03;;;;;;;7.30;100.00;101877.78;6094356;23;20158;-73
2023/05/02 03:50:16;;;;;;;8.90;3.23;;;;;;;7.50;100.00;101918.53;6094328;23;20194;-73
2023/05/02 03:52:41;;;;;;;6.83;2.03;;;;;;;7.89;100.00;101945.72;6094140;23;20174;-73
2023/05/02 03:55:07;;;;;;;5.20;2.30;;;;;;;7.93;100.00;101952.47;6093355;23;20151;-75
2023/05/02 03:57:32;;;;;;;7.00;2.50;;;;;;;7.63;100.00;101964.34;6094158;23;20182;-74
2023/05/02 03:59:58;;;;;;;6.03;1.83;;;;;;;8.06;100.00;102018.84;6091782;23;20789;-73
2023/05/02 04:02:24;;;;;;;6.97;1.90;;;;;;;8.49;100.00;102042.13;6090708;23;20198;-73
2023/05/02 04:04:49;;;;;;;10.10;2.30;;;;;;;7.74;100.00;101979.31;6090475;23;20951;-74
2023/05/02 04:07:18;;;;;;;5.87;1.90;;;;;;;7.71;100.00;101948.41;6092549;23;20259;-73
2023/05/02 04:09:44;;;;;;;9.43;2.17;;;;;;;8.58;100.00;102100.03;6092080;23;20586;-73
2023/05/02 04:12:09;;;;;;;6.50;1.73;;;;;;;7.89;100.00;102015.19;6090542;23;20449;-74
2023/05/02 04:14:35;;;;;;;16.23;1.97;;;;;;;8.64;100.00;102111.09;6092868;23;20593;-73
2023/05/02 04:17:00;;;;;;;6.30;1.50;;;;;;;8.12;100.00;102071.69;6091576;23;20638;-73
2023/05/02 04:19:26;;;;;;;4.30;1.63;;;;;;;7.50;100.00;101994.09;6092523;23;20233;-73
2023/05/02 04:21:51;;;;;;;10.93;2.17;;;;;;;8.00;100.00;102121.84;6092392;23;20182;-73
2023/05/02 04:24:17;;;;;;;9.13;2.40;;;;;;;7.50;100.00;102039.50;6093615;23;20239;-73
2023/05/02 04:26:43;;;;;;;9.00;2.90;;;;;;;8.25;100.00;102133.63;6093472;23;20175;-73
2023/05/02 04:29:08;;;;;;;6.90;2.60;;;;;;;8.26;100.00;102135.31;6091841;23;20419;-73
2023/05/02 04:31:34;;;;;;;6.83;2.20;;;;;;;8.26;100.00;102153.19;6091431;23;20185;-73
2023/05/02 04:34:00;;;;;;;9.30;2.80;;;;;;;7.99;100.00;102140.72;6091995;23;20605;-73
2023/05/02 04:36:27;;;;;;;6.80;2.50;;;;;;;7.41;100.00;102030.53;6090260;23;20395;-73
2023/05/02 04:38:52;;;;;;;5.87;2.37;;;;;;;7.56;100.00;102062.09;6091352;23;20169;-73
2023/05/02 04:41:18;;;;;;;10.50;2.37;;;;;;;8.18;100.00;102145.91;6090802;23;20505;-73
2023/05/02 04:43:44;;;;;;;11.40;2.77;;;;;;;8.26;100.00;102161.19;6093205;23;20193;-73
2023/05/02 04:46:10;;;;;;;8.43;2.60;;;;;;;8.45;100.00;102155.75;6090165;23;20159;-73
2023/05/02 04:48:35;;;;;;;9.03;2.80;;;;;;;7.76;100.00;102130.41;6090981;23;20193;-72
2023/05/02 04:51:01;;;;;;;4.67;2.10;;;;;;;7.56;100.00;102097.63;6092216;23;20406;-72
2023/05/02 04:53:27;;;;;;;10.87;2.63;;;;;;;7.76;100.00;102089.53;6092162;23;20150;-73
2023/05/02 04:55:52;;;;;;;5.70;2.43;;;;;;;7.76;100.00;102092.19;6092080;23;20283;-74
2023/05/02 04:58:18;;;;;;;10.10;2.70;;;;;;;8.57;100.00;102170.56;6088029;23;20520;-74
2023/05/02 05:00:43;;;;;;;6.40;2.30;;;;;;;8.12;100.00;102162.53;6089054;23;20265;-75
2023/05/02 05:03:09;;;;;;;5.67;2.77;;;;;;;7.98;100.00;102147.84;6092260;23;20146;-72
2023/05/02 05:05:34;;;;;;;6.93;2.30;;;;;;;7.74;100.00;102139.56;6089288;23;20166;-73
2023/05/02 05:08:00;;;;;;;9.60;2.43;;;;;;;8.07;100.00;102146.13;6089312;23;20172;-74
2023/05/02 05:10:25;;;;;;;6.73;2.10;;;;;;;8.04;100.00;102130.38;6089876;23;20163;-73
2023/05/02 05:12:52;;;;;;;9.60;2.30;;;;;;;8.26;100.00;102186.09;6091161;23;20226;-73
2023/05/02 05:15:19;;;;;;;11.87;3.33;;;;;;;8.68;100.00;102236.38;6089858;23;20161;-74
2023/05/02 05:17:45;;;;;;;6.27;2.70;;;;;;;7.87;100.00;102158.78;6091274;23;20908;-74
2023/05/02 05:20:10;;;;;;;6.67;2.60;;;;;;;7.83;100.00;102154.69;6089256;23;20410;-74
2023/05/02 05:22:40;;;;;;;8.40;1.90;;;;;;;8.25;100.00;102261.94;6090282;23;20390;-74
2023/05/02 05:25:06;;;;;;;6.47;2.47;;;;;;;8.03;100.00;102227.59;6088411;23;20167;-73
2023/05/02 05:27:36;;;;;;;10.83;2.83;;;;;;;8.67;100.00;102261.41;6090630;23;20454;-74
2023/05/02 05:30:03;;;;;;;8.80;2.27;;;;;;;8.16;100.00;102209.38;6091421;23;20714;-74
2023/05/02 05:32:28;;;;;;;5.17;1.90;;;;;;;7.57;100.00;102112.66;6090380;23;20396;-74
2023/05/02 05:34:54;;;;;;;9.33;2.57;;;;;;;8.53;100.00;102261.94;6092255;23;20465;-73
2023/05/02 05:37:20;;;;;;;10.23;2.23;;;;;;;7.63;100.00;102194.84;6091787;23;20729;-74
2023/05/02 05:39:46;;;;;;;4.60;1.90;;;;;;;7.87;100.00;102242.44;6090761;23;20911;-75
2023/05/02 05:42:11;;;;;;;11.63;2.80;;;;;;;7.73;100.00;102202.84;6090710;23;20461;-73
2023/05/02 05:44:38;;;;;;;7.67;1.97;;;;;;;7.98;100.00;102205.81;6089787;23;20213;-73
2023/05/02 05:47:03;;;;;;;7.97;2.53;;;;;;;7.59;100.00;102158.75;6089284;23;20158;-73
2023/05/02 05:49:29;;;;;;;6.30;2.10;;;;;;;8.76;100.00;102302.47;6091163;23;20379;-73
2023/05/02 05:51:54;;;;;;;9.50;2.10;;;;;;;8.37;100.00;102249.22;6091832;23;20222;-73
2023/05/02 05:54:20;;;;;;;4.90;2.23;;;;;;;8.26;100.00;102212.00;6092446;23;20601;-73
2023/05/02 05:56:46;;;;;;;8.63;2.47;;;;;;;8.07;100.00;102215.59;6089747;23;20186;-73
2023/05/02 05:59:11;;;;;;;8.30;2.70;;;;;;;8.90;100.00;102309.16;6089777;23;20166;-73
2023/05/02 06:01:37;;;;;;;6.17;1.87;;;;;;;8.19;100.00;102241.16;6091230;23;20189;-73
2023/05/02 06:04:03;;;;;;;12.27;2.80;;;;;;;7.54;100.00;102118.28;6087367;23;20222;-72
2023/05/02 06:06:30;;;;;;;5.57;2.10;;;;;;;7.93;100.00;102198.25;6087798;23;20150;-73
2023/05/02 06:08:56;;;;;;;6.57;2.37;;;;;;;7.47;100.00;102110.03;6088844;23;20403;-72
2023/05/02 06:11:23;;;;;;;10.53;2.63;;;;;;;6.82;100.00;102050.44;6089271;23;20401;-73
2023/05/02 06:13:50;;;;;;;7.83;2.07;;;;;;;6.03;100.00;101934.31;6091100;23;20173;-73
2023/05/02 06:16:16;;;;;;;12.60;3.00;;;;;;;7.77;100.00;102228.25;6090612;23;20386;-73
2023/05/02 06:18:42;;;;;;;11.80;2.90;;;;;;;8.24;100.00;102340.44;6088840;23;20540;-72
2023/05/02 06:21:08;;;;;;;10.93;2.23;;;;;;;7.49;100.00;102179.28;6090023;23;20846;-72
2023/05/02 06:23:33;;;;;;;12.27;2.40;;;;;;;7.80;100.00;102233.31;6090395;23;20387;-72
2023/05/02 06:26:00;;;;;;;9.33;2.60;;;;;;;8.49;100.00;102333.59;6089812;23;20605;-72
2023/05/02 06:28:26;;;;;;;5.97;1.80;;;;;;;7.65;100.00;102246.28;6092303;23;20196;-73
2023/05/02 06:31:03;;;;;;;8.03;2.60;;;;;;;7.78;100.00;102224.59;6090906;23;20394;-73
2023/05/02 06:33:29;;;;;;;7.20;3.13;;;;;;;7.81;100.00;102243.00;6090504;23;20629;-72
2023/05/02 06:35:55;;;;;;;8.63;2.37;;;;;;;8.05;100.00;102228.28;6090490;23;20374;-73
2023/05/02 06:38:21;;;;;;;9.40;2.20;;;;;;;8.62;100.00;102333.28;6090401;23;20489;-72
2023/05/02 06:40:48;;;;;;;10.17;3.60;;;;;;;8.04;100.00;102208.75;6092740;23;20532;-72
2023/05/02 06:43:13;;;;;;;7.33;2.40;;;;;;;8.57;100.00;102298.09;6090390;23;20405;-72
2023/05/02 06:45:39;;;;;;;6.57;2.47;;;;;;;8.27;100.00;102280.50;6090994;23;20394;-72
2023/05/02 06:48:05;;;;;;;13.50;2.57;;;;;;;7.82;100.00;102215.31;6088136;23;20726;-72
2023/05/02 06:50:31;;;;;;;10.37;2.60;;;;;;;8.24;100.00;102259.41;6088420;23;20398;-74
2023/05/02 06:52:57;;;;;;;9.77;2.37;;;;;;;8.82;100.00;102358.06;6092143;23;20387;-72
2023/05/02 06:55:22;;;;;;;6.50;2.07;;;;;;;8.44;100.00;102287.75;6089074;23;20508;-71
2023/05/02 06:57:48;;;;;;;5.93;1.90;;;;;;;8.75;100.00;102397.13;6087476;23;20258;-74
2023/05/02 07:00:16;;;;;;;4.13;2.03;;;;;;;8.36;100.00;102344.63;6091500;23;20159;-70
2023/05/02 07:02:42;;;;;;;5.30;1.97;;;;;;;8.27;100.00;102316.06;6092840;23;20385;-71
2023/05/02 07:05:08;;;;;;;8.27;2.30;;;;;;;8.35;100.00;102334.06;6091611;23;20441;-70
2023/05/02 07:07:33;;;;;;;5.13;1.93;;;;;;;8.24;100.00;102311.03;6092092;23;20147;-70
2023/05/02 07:09:58;;;;;;;7.53;1.53;;;;;;;8.80;100.00;102401.03;6092943;23;20382;-72
2023/05/02 07:12:25;;;;;;;4.77;1.80;;;;;;;8.92;100.00;102390.13;6092480;23;20159;-72
2023/05/02 07:14:50;;;;;;;5.53;2.00;;;;;;;9.14;100.00;102419.16;6092415;23;20280;-71
2023/05/02 07:17:16;;;;;;;6.00;1.70;;;;;;;9.30;100.00;102415.78;6091603;23;20457;-71
2023/05/02 07:19:41;;;;;;;5.57;1.70;;;;;;;9.22;100.00;102429.94;6093557;23;20206;-71
2023/05/02 07:22:07;;;;;;;4.53;1.70;;;;;;;8.72;100.00;102362.63;6093823;23;20189;-71
2023/05/02 07:24:32;;;;;;;4.53;1.60;;;;;;;8.95;100.00;102409.41;6090324;23;20178;-71
2023/05/02 07:26:57;;;;;;;4.17;1.53;;;;;;;8.60;100.00;102362.00;6091038;23;20246;-71
2023/05/02 07:29:23;;;;;;;3.43;1.30;;;;;;;8.43;100.00;102328.84;6091865;23;20170;-71
2023/05/02 07:31:49;;;;;;;3.90;1.50;;;;;;;8.62;100.00;102376.06;6091430;23;20606;-71
2023/05/02 07:34:15;;;;;;;2.97;1.50;;;;;;;9.07;100.00;102444.00;6093418;23;20425;-71
2023/05/02 07:36:40;;;;;;;3.43;1.50;;;;;;;9.33;100.00;102452.97;6093479;23;20182;-71
2023/05/02 07:39:06;;;;;;;1.70;1.10;;;;;;;9.12;100.00;102455.94;6092891;23;20760;-71
2023/05/02 07:41:31;;;;;;;3.37;1.40;;;;;;;9.00;100.00;102459.81;6093695;23;20162;-72
2023/05/02 07:43:56;;;;;;;2.33;0.97;;;;;;;9.20;100.00;102428.38;6092826;23;20182;-71
2023/05/02 07:46:23;;;;;;;4.93;0.90;;;;;;;8.52;100.00;102327.13;6092812;23;20159;-71
2023/05/02 07:48:49;;;;;;;1.80;0.87;;;;;;;8.53;100.00;102327.00;6091114;23;20159;-72
2023/05/02 07:51:14;;;;;;;4.03;1.40;;;;;;;8.82;100.00;102347.34;6091887;23;20389;-72
2023/05/02 07:53:40;;;;;;;3.40;1.00;;;;;;;9.11;100.00;102419.44;6092489;23;20461;-72
2023/05/02 07:56:07;;;;;;;3.10;1.17;;;;;;;9.58;100.00;102459.44;6091013;23;20165;-71
2023/05/02 07:58:34;;;;;;;3.43;1.30;;;;;;;9.00;100.00;102358.09;6089166;23;20291;-72
2023/05/02 08:01:00;;;;;;;3.30;1.10;;;;;;;9.14;100.00;102365.63;6088287;23;21077;-72
2023/05/02 08:03:26;;;;;;;2.97;1.17;;;;;;;9.50;100.00;102462.88;6090842;23;20382;-72
2023/05/02 08:05:52;;;;;;;5.30;1.10;;;;;;;8.66;100.00;102355.22;6089369;23;20492;-71
2023/05/02 08:08:18;;;;;;;3.67;1.03;;;;;;;9.02;100.00;102373.00;6090858;23;20390;-71
2023/05/02 08:10:44;;;;;;;2.90;1.17;;;;;;;9.14;100.00;102402.22;6091169;23;20597;-71
2023/05/02 08:13:10;;;;;;;3.17;1.23;;;;;;;9.65;100.00;102487.28;6089087;23;20172;-71
2023/05/02 08:15:36;;;;;;;3.33;1.60;;;;;;;9.11;100.00;102371.25;6089944;23;20485;-71
2023/05/02 08:18:01;;;;;;;2.10;1.03;;;;;;;9.35;100.00;102383.22;6090843;23;20463;-72
2023/05/02 08:20:27;;;;;;;2.80;1.13;;;;;;;9.20;100.00;102366.81;6091697;23;20507;-70
2023/05/02 08:22:52;;;;;;;2.00;1.00;;;;;;;9.08;100.00;102379.59;6088840;23;20170;-72
2023/05/02 08:25:18;;;;;;;1.47;1.00;;;;;;;9.28;100.00;102367.75;6091840;23;20517;-72
2023/05/02 08:27:44;;;;;;;3.43;0.97;;;;;;;9.61;100.00;102404.72;6091903;23;20490;-72
2023/05/02 08:30:10;;;;;;;3.40;1.10;;;;;;;9.66;100.00;102445.25;6091608;23;20575;-71
2023/05/02 08:32:36;;;;;;;3.33;0.97;;;;;;;9.26;100.00;102375.09;6091462;23;20399;-71
2023/05/02 08:35:01;;;;;;;2.23;0.90;;;;;;;10.00;100.00;102449.91;6090995;23;20402;-72
2023/05/02 08:37:27;;;;;;;2.90;1.23;;;;;;;9.86;100.00;102473.56;6089385;23;20197;-71
2023/05/02 08:39:52;;;;;;;3.53;1.10;;;;;;;9.56;100.00;102405.16;6092366;23;20955;-71
2023/05/02 08:42:19;;;;;;;5.90;1.23;;;;;;;9.59;100.00;102404.84;6092945;23;20206;-71
2023/05/02 08:44:46;;;;;;;4.27;1.00;;;;;;;9.80;100.00;102420.59;6092606;23;20484;-71
2023/05/02 08:47:13;;;;;;;3.67;0.93;;;;;;;10.24;100.00;102500.19;6091248;23;20470;-72
2023/05/02 08:49:40;;;;;;;3.23;1.27;;;;;;;10.42;100.00;102508.25;6091351;23;21349;-72
2023/05/02 08:52:09;;;;;;;4.63;1.10;;;;;;;8.94;100.00;102358.69;6089769;23;20382;-72
2023/05/02 08:54:37;;;;;;;2.87;0.90;;;;;;;9.89;100.00;102494.75;6092449;23;20457;-72
2023/05/02 08:57:03;;;;;;;2.20;0.87;;;;;;;9.99;100.00;102459.78;6091484;23;20460;-72
2023/05/02 08:59:29;;;;;;;7.70;1.33;;;;;;;10.03;100.00;102466.53;6092131;23;20377;-72
2023/05/02 09:01:59;;;;;;;3.53;1.37;;;;;;;9.98;100.00;102502.81;6093225;23;20469;-71
2023/05/02 09:04:31;;;;;;;3.83;1.47;;;;;;;9.97;100.00;102504.66;6090488;23;20215;-71
2023/05/02 09:06:57;;;;;;;5.40;1.20;;;;;;;9.44;100.00;102412.59;6090142;23;20731;-71
2023/05/02 09:09:23;;;;;;;3.73;1.23;;;;;;;9.56;100.00;102436.47;6091803;23;20385;-72
2023/05/02 09:11:50;;;;;;;2.63;1.30;;;;;;;9.19;100.00;102424.88;6090674;23;20170;-71
2023/05/02 09:14:16;;;;;;;6.43;1.17;;;;;;;9.66;100.00;102520.28;6091796;23;20403;-73
2023/05/02 09:16:42;;;;;;;1.90;1.00;;;;;;;9.84;100.00;102545.28;6089845;23;20727;-71
2023/05/02 09:19:07;;;;;;;2.80;1.30;;;;;;;10.06;100.00;102527.03;6091583;23;20425;-72
2023/05/02 09:21:41;;;;;;;3.77;1.30;;;;;;;9.91;100.00;102455.19;6087920;23;20253;-71
2023/05/02 09:24:20;;;;;;;5.00;0.93;;;;;;;10.42;100.00;102537.78;6089606;23;20629;-70
2023/05/02 09:26:56;;;;;;;2.73;1.17;;;;;;;9.79;100.00;102439.53;6092928;23;20817;-72
2023/05/02 09:29:22;;;;;;;4.97;1.20;;;;;;;9.69;100.00;102451.19;6090667;23;20402;-73
2023/05/02 09:31:48;;;;;;;3.67;1.03;;;;;;;9.85;100.00;102493.34;6090025;23;20395;-72
2023/05/02 09:34:15;;;;;;;3.83;0.90;;;;;;;10.10;100.00;102563.28;6091966;23;20402;-72
2023/05/02 09:36:43;;;;;;;7.43;1.10;;;;;;;9.91;100.00;102545.50;6089107;23;20158;-72
2023/05/02 09:39:14;;;;;;;4.23;1.80;;;;;;;9.43;100.00;102477.88;6091463;23;20387;-72
2023/05/02 09:41:44;;;;;;;3.23;1.10;;;;;;;9.82;100.00;102511.56;6087956;23;20845;-69
2023/05/02 09:44:11;;;;;;;3.90;1.10;;;;;;;9.79;100.00;102439.53;6090668;23;20403;-71
2023/05/02 09:46:47;;;;;;;5.43;1.90;;;;;;;10.21;100.00;102564.88;6085713;23;20390;-71
2023/05/02 09:49:17;;;;;;;3.37;1.27;;;;;;;10.52;100.00;102558.13;6090925;23;20396;-73
2023/05/02 09:51:43;;;;;;;2.50;1.17;;;;;;;9.99;100.00;102502.69;6090467;23;20394;-72
2023/05/02 09:54:08;;;;;;;2.83;1.00;;;;;;;10.56;100.00;102539.88;6090590;23;20802;-72
2023/05/02 09:56:56;;;;;;;2.00;1.00;;;;;;;11.11;100.00;102554.78;6092282;23;20166;-72
2023/05/02 09:59:22;;;;;;;3.97;1.10;;;;;;;10.29;100.00;102469.25;6091345;23;20233;-72
2023/05/02 10:01:59;;;;;;;3.43;1.20;;;;;;;10.16;100.00;102501.00;6089209;23;20729;-72
2023/05/02 10:04:25;;;;;;;2.43;1.37;;;;;;;10.40;100.00;102567.41;6090458;23;20422;-72
2023/05/02 10:06:52;;;;;;;3.20;1.50;;;;;;;10.30;100.00;102550.56;6090286;23;20386;-72
2023/05/02 10:09:20;;;;;;;3.33;1.37;;;;;;;9.89;100.00;102494.75;6089640;23;20427;-71
2023/05/02 10:11:46;;;;;;;1.80;1.13;;;;;;;10.59;100.00;102586.03;6088734;23;20783;-72
2023/05/02 10:14:15;;;;;;;2.13;1.20;;;;;;;10.09;100.00;102503.44;6087393;23;20889;-72
2023/05/02 10:17:04;;;;;;;1.60;0.90;;;;;;;10.71;100.00;102542.84;6088111;23;20387;-72
2023/05/02 10:19:38;;;;;;;4.53;1.20;;;;;;;10.32;100.00;102583.44;6068477;23;20390;-72
2023/05/02 10:22:04;;;;;;;4.63;1.00;;;;;;;9.78;100.00;102464.63;6088796;23;20422;-72
2023/05/02 10:24:32;;;;;;;2.30;1.00;;;;;;;10.22;100.00;102499.53;6090400;23;20406;-73
2023/05/02 10:26:58;;;;;;;3.03;0.90;;;;;;;10.28;100.00;102509.66;6090303;23;20382;-72
2023/05/02 10:29:28;;;;;;;1.10;0.77;;;;;;;10.27;100.00;102498.09;6091473;23;20418;-72
2023/05/02 10:31:55;;;;;;;3.03;1.00;;;;;;;10.04;100.00;102478.94;6090018;23;20445;-72
2023/05/02 10:34:21;;;;;;;1.83;0.70;;;;;;;10.16;100.00;102484.91;6090183;23;20398;-73
2023/05/02 10:36:47;;;;;;;3.20;1.00;;;;;;;10.70;100.00;102584.06;6088624;23;20422;-73
2023/05/02 10:39:13;;;;;;;1.87;1.00;;;;;;;10.66;100.00;102558.56;6091115;23;20385;-72
2023/05/02 10:41:40;;;;;;;6.10;1.40;;;;;;;10.10;100.00;102531.94;6091581;23;20159;-71
2023/05/02 10:44:07;;;;;;;3.17;1.10;;;;;;;10.51;100.00;102614.63;6089052;23;20174;-72
2023/05/02 10:46:35;;;;;;;6.53;1.00;;;;;;;10.11;100.00;102546.19;6088895;23;20386;-72
2023/05/02 10:49:06;;;;;;;5.20;1.40;;;;;;;10.52;100.00;102584.09;6089429;23;20394;-72
2023/05/02 10:51:32;;;;;;;4.30;1.50;;;;;;;10.80;100.00;102607.13;6090326;23;20928;-73
2023/05/02 10:54:19;;;;;;;2.93;1.23;;;;;;;11.04;100.00;102610.97;6090527;23;20485;-72
2023/05/02 10:57:02;;;;;;;6.60;1.23;;;;;;;11.09;100.00;102612.19;6091860;23;20414;-72
2023/05/02 10:59:29;;;;;;;4.57;1.17;;;;;;;10.77;100.00;102618.19;6090855;23;20397;-72
2023/05/02 11:01:55;;;;;;;3.00;1.20;;;;;;;10.35;100.00;102537.53;6091506;23;20396;-72
2023/05/02 11:04:20;;;;;;;3.17;1.10;;;;;;;10.37;100.00;102524.81;6092521;23;20410;-72
2023/05/02 11:06:58;;;;;;;3.77;1.10;;;;;;;10.68;100.00;102624.50;6093054;23;20382;-72
2023/05/02 11:09:23;;;;;;;2.83;1.03;;;;;;;10.90;100.00;102625.81;6091616;23;20169;-73
2023/05/02 11:11:51;;;;;;;2.20;1.00;;;;;;;10.54;100.00;102627.72;6093258;23;20378;-72
2023/05/02 11:14:29;;;;;;;2.20;1.27;;;;;;;10.42;100.00;102623.59;6091659;23;20647;-72
2023/05/02 11:17:02;;;;;;;3.83;1.20;;;;;;;10.29;100.00;102629.34;6090446;23;20436;-72
2023/05/02 11:19:48;;;;;;;2.90;1.00;;;;;;;9.92;100.00;102515.00;6090900;23;20448;-73
2023/05/02 11:22:20;;;;;;;2.73;0.97;;;;;;;10.92;100.00;102623.81;6090655;23;20873;-72
2023/05/02 11:24:47;;;;;;;3.40;1.13;;;;;;;10.67;100.00;102638.06;6090820;23;20482;-73